sensor_id;sensor_type;location;lat;lon;timestamp;P1;durP1;ratioP1;P2;durP2;ratioP2
17310;SDS011;8773;43.300;0.394;2022-08-06T00:00:18;5.28;;;3.78;;
17310;SDS011;8773;43.300;0.394;2022-08-06T00:02:54;4.95;;;3.40;;
17310;SDS011;8773;43.300;0.394;2022-08-06T00:05:22;4.75;;;3.65;;
17310;SDS011;8773;43.300;0.394;2022-08-06T00:08:00;5.88;;;3.40;;
17310;SDS011;8773;43.300;0.394;2022-08-06T00:10:28;4.53;;;3.40;;
17310;SDS011;8773;43.300;0.394;2022-08-06T00:12:56;7.05;;;3.75;;
17310;SDS011;8773;43.300;0.394;2022-08-06T00:15:30;4.07;;;3.67;;
17310;SDS011;8773;43.300;0.394;2022-08-06T00:18:20;3.53;;;3.33;;
17310;SDS011;8773;43.300;0.394;2022-08-06T00:20:50;7.10;;;3.50;;
17310;SDS011;8773;43.300;0.394;2022-08-06T00:23:18;4.07;;;3.63;;
17310;SDS011;8773;43.300;0.394;2022-08-06T00:25:50;6.72;;;3.92;;
17310;SDS011;8773;43.300;0.394;2022-08-06T00:28:19;4.03;;;3.30;;
17310;SDS011;8773;43.300;0.394;2022-08-06T00:30:56;4.07;;;3.58;;
17310;SDS011;8773;43.300;0.394;2022-08-06T00:33:36;6.47;;;3.90;;
17310;SDS011;8773;43.300;0.394;2022-08-06T00:36:22;4.57;;;3.13;;
17310;SDS011;8773;43.300;0.394;2022-08-06T00:38:53;4.03;;;3.65;;
17310;SDS011;8773;43.300;0.394;2022-08-06T00:41:22;5.68;;;3.80;;
17310;SDS011;8773;43.300;0.394;2022-08-06T00:44:00;5.05;;;3.35;;
17310;SDS011;8773;43.300;0.394;2022-08-06T00:46:29;4.88;;;3.67;;
17310;SDS011;8773;43.300;0.394;2022-08-06T00:48:59;5.85;;;3.60;;
17310;SDS011;8773;43.300;0.394;2022-08-06T00:51:37;4.82;;;3.67;;
17310;SDS011;8773;43.300;0.394;2022-08-06T00:54:17;4.93;;;3.90;;
17310;SDS011;8773;43.300;0.394;2022-08-06T00:57:01;6.65;;;3.80;;
17310;SDS011;8773;43.300;0.394;2022-08-06T00:59:35;4.07;;;3.63;;
17310;SDS011;8773;43.300;0.394;2022-08-06T01:02:04;4.82;;;3.60;;
17310;SDS011;8773;43.300;0.394;2022-08-06T01:04:37;6.97;;;3.90;;
17310;SDS011;8773;43.300;0.394;2022-08-06T01:07:05;4.65;;;3.70;;
17310;SDS011;8773;43.300;0.394;2022-08-06T01:09:35;4.47;;;4.07;;
17310;SDS011;8773;43.300;0.394;2022-08-06T01:12:23;7.05;;;4.07;;
17310;SDS011;8773;43.300;0.394;2022-08-06T01:15:01;4.68;;;3.60;;
17310;SDS011;8773;43.300;0.394;2022-08-06T01:17:42;4.57;;;4.00;;
17310;SDS011;8773;43.300;0.394;2022-08-06T01:20:30;6.97;;;3.90;;
17310;SDS011;8773;43.300;0.394;2022-08-06T01:23:43;5.03;;;4.30;;
17310;SDS011;8773;43.300;0.394;2022-08-06T01:26:28;4.03;;;3.65;;
17310;SDS011;8773;43.300;0.394;2022-08-06T01:29:05;4.95;;;3.80;;
17310;SDS011;8773;43.300;0.394;2022-08-06T01:31:42;4.90;;;4.30;;
17310;SDS011;8773;43.300;0.394;2022-08-06T01:34:17;3.88;;;3.45;;
17310;SDS011;8773;43.300;0.394;2022-08-06T01:36:58;4.47;;;3.80;;
17310;SDS011;8773;43.300;0.394;2022-08-06T01:39:31;4.85;;;3.78;;
17310;SDS011;8773;43.300;0.394;2022-08-06T01:42:22;6.10;;;4.13;;
17310;SDS011;8773;43.300;0.394;2022-08-06T01:45:05;4.05;;;3.60;;
17310;SDS011;8773;43.300;0.394;2022-08-06T01:47:36;6.15;;;3.78;;
17310;SDS011;8773;43.300;0.394;2022-08-06T01:50:21;3.90;;;3.40;;
17310;SDS011;8773;43.300;0.394;2022-08-06T01:52:54;4.88;;;4.00;;
17310;SDS011;8773;43.300;0.394;2022-08-06T01:55:27;4.55;;;4.15;;
17310;SDS011;8773;43.300;0.394;2022-08-06T01:58:17;4.25;;;3.70;;
17310;SDS011;8773;43.300;0.394;2022-08-06T02:00:57;4.43;;;3.58;;
17310;SDS011;8773;43.300;0.394;2022-08-06T02:03:30;3.95;;;3.65;;
17310;SDS011;8773;43.300;0.394;2022-08-06T02:06:19;4.15;;;3.80;;
17310;SDS011;8773;43.300;0.394;2022-08-06T02:08:55;4.88;;;3.53;;
17310;SDS011;8773;43.300;0.394;2022-08-06T02:11:46;3.88;;;3.58;;
17310;SDS011;8773;43.300;0.394;2022-08-06T02:14:30;5.25;;;4.05;;
17310;SDS011;8773;43.300;0.394;2022-08-06T02:17:06;4.45;;;4.10;;
17310;SDS011;8773;43.300;0.394;2022-08-06T02:19:43;4.60;;;4.10;;
17310;SDS011;8773;43.300;0.394;2022-08-06T02:22:34;5.05;;;3.85;;
17310;SDS011;8773;43.300;0.394;2022-08-06T02:25:09;4.30;;;3.53;;
17310;SDS011;8773;43.300;0.394;2022-08-06T02:27:48;3.95;;;3.67;;
17310;SDS011;8773;43.300;0.394;2022-08-06T02:30:24;4.28;;;3.53;;
17310;SDS011;8773;43.300;0.394;2022-08-06T02:33:03;6.60;;;3.72;;
17310;SDS011;8773;43.300;0.394;2022-08-06T02:35:35;3.95;;;3.63;;
17310;SDS011;8773;43.300;0.394;2022-08-06T02:38:07;4.13;;;3.70;;
17310;SDS011;8773;43.300;0.394;2022-08-06T02:40:40;4.05;;;3.65;;
17310;SDS011;8773;43.300;0.394;2022-08-06T02:43:13;4.28;;;3.88;;
17310;SDS011;8773;43.300;0.394;2022-08-06T02:45:46;4.55;;;4.03;;
17310;SDS011;8773;43.300;0.394;2022-08-06T02:48:26;4.30;;;4.00;;
17310;SDS011;8773;43.300;0.394;2022-08-06T02:50:59;4.18;;;3.75;;
17310;SDS011;8773;43.300;0.394;2022-08-06T02:53:54;4.30;;;3.90;;
17310;SDS011;8773;43.300;0.394;2022-08-06T02:56:30;4.80;;;3.65;;
17310;SDS011;8773;43.300;0.394;2022-08-06T02:59:11;5.28;;;3.90;;
17310;SDS011;8773;43.300;0.394;2022-08-06T03:01:41;4.45;;;3.92;;
17310;SDS011;8773;43.300;0.394;2022-08-06T03:04:17;5.00;;;4.10;;
17310;SDS011;8773;43.300;0.394;2022-08-06T03:06:59;4.30;;;3.90;;
17310;SDS011;8773;43.300;0.394;2022-08-06T03:09:51;4.50;;;4.20;;
17310;SDS011;8773;43.300;0.394;2022-08-06T03:12:22;4.57;;;4.00;;
17310;SDS011;8773;43.300;0.394;2022-08-06T03:14:56;6.00;;;4.15;;
17310;SDS011;8773;43.300;0.394;2022-08-06T03:17:36;6.18;;;4.65;;
17310;SDS011;8773;43.300;0.394;2022-08-06T03:20:08;4.80;;;4.40;;
17310;SDS011;8773;43.300;0.394;2022-08-06T03:22:44;5.40;;;4.10;;
17310;SDS011;8773;43.300;0.394;2022-08-06T03:25:17;4.82;;;4.30;;
17310;SDS011;8773;43.300;0.394;2022-08-06T03:27:49;4.65;;;4.25;;
17310;SDS011;8773;43.300;0.394;2022-08-06T03:30:28;4.60;;;4.20;;
17310;SDS011;8773;43.300;0.394;2022-08-06T03:33:00;4.30;;;3.90;;
17310;SDS011;8773;43.300;0.394;2022-08-06T03:35:58;4.63;;;4.22;;
17310;SDS011;8773;43.300;0.394;2022-08-06T03:38:31;4.50;;;4.20;;
17310;SDS011;8773;43.300;0.394;2022-08-06T03:41:05;4.15;;;3.85;;
17310;SDS011;8773;43.300;0.394;2022-08-06T03:43:34;4.95;;;4.30;;
17310;SDS011;8773;43.300;0.394;2022-08-06T03:46:24;4.32;;;4.03;;
17310;SDS011;8773;43.300;0.394;2022-08-06T03:48:55;4.40;;;4.00;;
17310;SDS011;8773;43.300;0.394;2022-08-06T03:51:28;4.40;;;4.03;;
17310;SDS011;8773;43.300;0.394;2022-08-06T03:54:18;4.70;;;4.40;;
17310;SDS011;8773;43.300;0.394;2022-08-06T03:56:54;7.10;;;4.40;;
17310;SDS011;8773;43.300;0.394;2022-08-06T03:59:35;8.32;;;4.35;;
17310;SDS011;8773;43.300;0.394;2022-08-06T04:02:26;4.75;;;4.35;;
17310;SDS011;8773;43.300;0.394;2022-08-06T04:05:12;4.68;;;4.28;;
17310;SDS011;8773;43.300;0.394;2022-08-06T04:07:51;5.03;;;4.55;;
17310;SDS011;8773;43.300;0.394;2022-08-06T04:10:26;4.25;;;3.92;;
17310;SDS011;8773;43.300;0.394;2022-08-06T04:13:00;4.60;;;4.25;;
17310;SDS011;8773;43.300;0.394;2022-08-06T04:15:50;4.60;;;4.20;;
17310;SDS011;8773;43.300;0.394;2022-08-06T04:18:23;5.03;;;4.47;;
17310;SDS011;8773;43.300;0.394;2022-08-06T04:20:54;4.78;;;4.38;;
17310;SDS011;8773;43.300;0.394;2022-08-06T04:23:45;4.38;;;3.95;;
17310;SDS011;8773;43.300;0.394;2022-08-06T04:26:14;4.78;;;4.35;;
17310;SDS011;8773;43.300;0.394;2022-08-06T04:28:46;5.03;;;4.18;;
17310;SDS011;8773;43.300;0.394;2022-08-06T04:31:24;4.90;;;4.45;;
17310;SDS011;8773;43.300;0.394;2022-08-06T04:34:15;7.70;;;4.38;;
17310;SDS011;8773;43.300;0.394;2022-08-06T04:36:54;5.10;;;4.65;;
17310;SDS011;8773;43.300;0.394;2022-08-06T04:39:24;5.10;;;4.68;;
17310;SDS011;8773;43.300;0.394;2022-08-06T04:42:12;4.68;;;4.28;;
17310;SDS011;8773;43.300;0.394;2022-08-06T04:44:41;4.78;;;4.38;;
17310;SDS011;8773;43.300;0.394;2022-08-06T04:47:10;7.90;;;5.07;;
17310;SDS011;8773;43.300;0.394;2022-08-06T04:49:40;6.15;;;4.93;;
17310;SDS011;8773;43.300;0.394;2022-08-06T04:52:28;5.32;;;4.93;;
17310;SDS011;8773;43.300;0.394;2022-08-06T04:55:13;5.10;;;4.70;;
17310;SDS011;8773;43.300;0.394;2022-08-06T04:57:58;5.32;;;4.93;;
17310;SDS011;8773;43.300;0.394;2022-08-06T05:00:29;5.32;;;4.80;;
17310;SDS011;8773;43.300;0.394;2022-08-06T05:03:18;4.85;;;4.43;;
17310;SDS011;8773;43.300;0.394;2022-08-06T05:06:08;5.13;;;4.70;;
17310;SDS011;8773;43.300;0.394;2022-08-06T05:08:41;5.57;;;4.97;;
17310;SDS011;8773;43.300;0.394;2022-08-06T05:11:21;5.95;;;4.80;;
17310;SDS011;8773;43.300;0.394;2022-08-06T05:13:52;6.20;;;5.10;;
17310;SDS011;8773;43.300;0.394;2022-08-06T05:16:24;5.60;;;4.50;;
17310;SDS011;8773;43.300;0.394;2022-08-06T05:18:53;5.05;;;4.53;;
17310;SDS011;8773;43.300;0.394;2022-08-06T05:21:47;4.97;;;4.55;;
17310;SDS011;8773;43.300;0.394;2022-08-06T05:24:36;5.53;;;5.13;;
17310;SDS011;8773;43.300;0.394;2022-08-06T05:27:26;4.55;;;4.25;;
17310;SDS011;8773;43.300;0.394;2022-08-06T05:30:14;5.43;;;4.93;;
17310;SDS011;8773;43.300;0.394;2022-08-06T05:32:42;5.25;;;4.72;;
17310;SDS011;8773;43.300;0.394;2022-08-06T05:35:16;4.80;;;4.53;;
17310;SDS011;8773;43.300;0.394;2022-08-06T05:37:44;4.50;;;4.20;;
17310;SDS011;8773;43.300;0.394;2022-08-06T05:40:30;5.93;;;4.03;;
17310;SDS011;8773;43.300;0.394;2022-08-06T05:43:23;4.95;;;4.43;;
17310;SDS011;8773;43.300;0.394;2022-08-06T05:46:11;5.47;;;4.68;;
17310;SDS011;8773;43.300;0.394;2022-08-06T05:48:48;4.82;;;4.43;;
17310;SDS011;8773;43.300;0.394;2022-08-06T05:51:23;5.13;;;4.45;;
17310;SDS011;8773;43.300;0.394;2022-08-06T05:54:13;4.97;;;4.50;;
17310;SDS011;8773;43.300;0.394;2022-08-06T05:56:49;4.75;;;4.38;;
17310;SDS011;8773;43.300;0.394;2022-08-06T05:59:23;4.38;;;3.95;;
17310;SDS011;8773;43.300;0.394;2022-08-06T06:02:15;4.57;;;4.22;;
17310;SDS011;8773;43.300;0.394;2022-08-06T06:04:45;3.95;;;3.55;;
17310;SDS011;8773;43.300;0.394;2022-08-06T06:07:35;4.30;;;4.05;;
17310;SDS011;8773;43.300;0.394;2022-08-06T06:10:24;5.13;;;4.45;;
17310;SDS011;8773;43.300;0.394;2022-08-06T06:12:53;3.90;;;3.60;;
17310;SDS011;8773;43.300;0.394;2022-08-06T06:15:24;5.68;;;4.18;;
17310;SDS011;8773;43.300;0.394;2022-08-06T06:18:15;6.03;;;4.53;;
17310;SDS011;8773;43.300;0.394;2022-08-06T06:21:01;4.53;;;4.13;;
17310;SDS011;8773;43.300;0.394;2022-08-06T06:23:58;5.57;;;4.40;;
17310;SDS011;8773;43.300;0.394;2022-08-06T06:26:35;5.85;;;4.47;;
17310;SDS011;8773;43.300;0.394;2022-08-06T06:29:15;5.72;;;4.40;;
17310;SDS011;8773;43.300;0.394;2022-08-06T06:32:13;4.60;;;4.30;;
17310;SDS011;8773;43.300;0.394;2022-08-06T06:35:09;5.10;;;4.65;;
17310;SDS011;8773;43.300;0.394;2022-08-06T06:37:49;5.65;;;4.63;;
17310;SDS011;8773;43.300;0.394;2022-08-06T06:40:35;5.22;;;4.80;;
17310;SDS011;8773;43.300;0.394;2022-08-06T06:43:33;4.95;;;4.43;;
17310;SDS011;8773;43.300;0.394;2022-08-06T06:46:13;5.28;;;4.80;;
17310;SDS011;8773;43.300;0.394;2022-08-06T06:49:08;4.82;;;4.45;;
17310;SDS011;8773;43.300;0.394;2022-08-06T06:52:03;5.20;;;4.22;;
17310;SDS011;8773;43.300;0.394;2022-08-06T06:54:37;4.43;;;4.03;;
17310;SDS011;8773;43.300;0.394;2022-08-06T06:57:31;5.63;;;3.35;;
17310;SDS011;8773;43.300;0.394;2022-08-06T07:00:46;3.17;;;2.97;;
17310;SDS011;8773;43.300;0.394;2022-08-06T07:03:36;4.65;;;2.90;;
17310;SDS011;8773;43.300;0.394;2022-08-06T07:06:10;6.03;;;3.33;;
17310;SDS011;8773;43.300;0.394;2022-08-06T07:09:00;3.05;;;2.83;;
17310;SDS011;8773;43.300;0.394;2022-08-06T07:11:50;3.63;;;3.30;;
17310;SDS011;8773;43.300;0.394;2022-08-06T07:14:50;4.30;;;2.92;;
17310;SDS011;8773;43.300;0.394;2022-08-06T07:17:27;3.30;;;3.10;;
17310;SDS011;8773;43.300;0.394;2022-08-06T07:20:16;3.28;;;3.10;;
17310;SDS011;8773;43.300;0.394;2022-08-06T07:22:56;3.72;;;3.20;;
17310;SDS011;8773;43.300;0.394;2022-08-06T07:25:46;3.53;;;3.17;;
17310;SDS011;8773;43.300;0.394;2022-08-06T07:28:20;4.47;;;3.25;;
17310;SDS011;8773;43.300;0.394;2022-08-06T07:31:04;3.45;;;3.13;;
17310;SDS011;8773;43.300;0.394;2022-08-06T07:33:37;4.28;;;3.17;;
17310;SDS011;8773;43.300;0.394;2022-08-06T07:36:28;4.40;;;2.92;;
17310;SDS011;8773;43.300;0.394;2022-08-06T07:39:06;3.30;;;2.97;;
17310;SDS011;8773;43.300;0.394;2022-08-06T07:41:41;7.55;;;3.53;;
17310;SDS011;8773;43.300;0.394;2022-08-06T07:44:34;4.43;;;3.03;;
17310;SDS011;8773;43.300;0.394;2022-08-06T07:47:24;6.38;;;2.92;;
17310;SDS011;8773;43.300;0.394;2022-08-06T07:50:14;4.75;;;2.95;;
17310;SDS011;8773;43.300;0.394;2022-08-06T07:52:49;4.45;;;2.90;;
17310;SDS011;8773;43.300;0.394;2022-08-06T07:55:21;6.95;;;3.03;;
17310;SDS011;8773;43.300;0.394;2022-08-06T07:58:02;4.95;;;3.03;;
17310;SDS011;8773;43.300;0.394;2022-08-06T08:00:33;5.28;;;2.88;;
17310;SDS011;8773;43.300;0.394;2022-08-06T08:03:05;5.03;;;2.83;;
17310;SDS011;8773;43.300;0.394;2022-08-06T08:06:14;4.07;;;2.83;;
17310;SDS011;8773;43.300;0.394;2022-08-06T08:08:48;5.35;;;2.78;;
17310;SDS011;8773;43.300;0.394;2022-08-06T08:11:44;4.90;;;2.45;;
17310;SDS011;8773;43.300;0.394;2022-08-06T08:14:33;3.78;;;2.72;;
17310;SDS011;8773;43.300;0.394;2022-08-06T08:17:03;5.25;;;2.63;;
17310;SDS011;8773;43.300;0.394;2022-08-06T08:19:31;6.50;;;2.65;;
17310;SDS011;8773;43.300;0.394;2022-08-06T08:22:02;8.55;;;2.83;;
17310;SDS011;8773;43.300;0.394;2022-08-06T08:24:33;3.80;;;2.60;;
17310;SDS011;8773;43.300;0.394;2022-08-06T08:27:06;4.57;;;2.80;;
17310;SDS011;8773;43.300;0.394;2022-08-06T08:29:50;6.95;;;3.28;;
17310;SDS011;8773;43.300;0.394;2022-08-06T08:32:23;5.28;;;2.60;;
17310;SDS011;8773;43.300;0.394;2022-08-06T08:34:52;4.63;;;2.83;;
17310;SDS011;8773;43.300;0.394;2022-08-06T08:37:23;5.35;;;2.50;;
17310;SDS011;8773;43.300;0.394;2022-08-06T08:40:02;5.93;;;3.00;;
17310;SDS011;8773;43.300;0.394;2022-08-06T08:42:34;5.63;;;2.75;;
17310;SDS011;8773;43.300;0.394;2022-08-06T08:45:17;6.57;;;3.17;;
17310;SDS011;8773;43.300;0.394;2022-08-06T08:47:48;5.60;;;2.90;;
17310;SDS011;8773;43.300;0.394;2022-08-06T08:50:26;7.93;;;2.83;;
17310;SDS011;8773;43.300;0.394;2022-08-06T08:53:14;4.38;;;2.42;;
17310;SDS011;8773;43.300;0.394;2022-08-06T08:56:28;7.15;;;3.20;;
17310;SDS011;8773;43.300;0.394;2022-08-06T08:59:38;5.78;;;2.55;;
17310;SDS011;8773;43.300;0.394;2022-08-06T09:02:46;4.43;;;2.55;;
17310;SDS011;8773;43.300;0.394;2022-08-06T09:05:35;4.32;;;2.60;;
17310;SDS011;8773;43.300;0.394;2022-08-06T09:08:12;3.80;;;2.17;;
17310;SDS011;8773;43.300;0.394;2022-08-06T09:11:00;5.38;;;2.45;;
17310;SDS011;8773;43.300;0.394;2022-08-06T09:13:32;3.05;;;2.20;;
17310;SDS011;8773;43.300;0.394;2022-08-06T09:16:18;3.90;;;2.25;;
17310;SDS011;8773;43.300;0.394;2022-08-06T09:18:57;4.28;;;2.20;;
17310;SDS011;8773;43.300;0.394;2022-08-06T09:21:26;3.28;;;2.58;;
17310;SDS011;8773;43.300;0.394;2022-08-06T09:23:57;5.43;;;2.22;;
17310;SDS011;8773;43.300;0.394;2022-08-06T09:26:31;3.95;;;2.40;;
17310;SDS011;8773;43.300;0.394;2022-08-06T09:29:20;4.00;;;2.28;;
17310;SDS011;8773;43.300;0.394;2022-08-06T09:32:01;5.05;;;2.33;;
17310;SDS011;8773;43.300;0.394;2022-08-06T09:34:40;5.72;;;2.55;;
17310;SDS011;8773;43.300;0.394;2022-08-06T09:37:22;3.05;;;2.17;;
17310;SDS011;8773;43.300;0.394;2022-08-06T09:40:15;2.50;;;2.30;;
17310;SDS011;8773;43.300;0.394;2022-08-06T09:42:45;4.10;;;2.40;;
17310;SDS011;8773;43.300;0.394;2022-08-06T09:45:19;3.60;;;2.58;;
17310;SDS011;8773;43.300;0.394;2022-08-06T09:48:10;3.72;;;2.42;;
17310;SDS011;8773;43.300;0.394;2022-08-06T09:50:43;4.53;;;2.55;;
17310;SDS011;8773;43.300;0.394;2022-08-06T09:53:13;3.88;;;2.28;;
17310;SDS011;8773;43.300;0.394;2022-08-06T09:55:47;4.70;;;2.22;;
17310;SDS011;8773;43.300;0.394;2022-08-06T09:58:28;4.10;;;2.30;;
17310;SDS011;8773;43.300;0.394;2022-08-06T10:01:10;3.65;;;2.63;;
17310;SDS011;8773;43.300;0.394;2022-08-06T10:03:50;3.75;;;2.70;;
17310;SDS011;8773;43.300;0.394;2022-08-06T10:06:32;4.75;;;2.38;;
17310;SDS011;8773;43.300;0.394;2022-08-06T10:09:05;4.00;;;2.50;;
17310;SDS011;8773;43.300;0.394;2022-08-06T10:11:55;3.35;;;2.40;;
17310;SDS011;8773;43.300;0.394;2022-08-06T10:14:24;5.35;;;2.67;;
17310;SDS011;8773;43.300;0.394;2022-08-06T10:17:04;3.83;;;2.80;;
17310;SDS011;8773;43.300;0.394;2022-08-06T10:19:36;4.07;;;2.50;;
17310;SDS011;8773;43.300;0.394;2022-08-06T10:22:20;2.65;;;2.40;;
17310;SDS011;8773;43.300;0.394;2022-08-06T10:24:54;3.60;;;2.70;;
17310;SDS011;8773;43.300;0.394;2022-08-06T10:27:49;3.38;;;2.05;;
17310;SDS011;8773;43.300;0.394;2022-08-06T10:30:22;4.43;;;2.63;;
17310;SDS011;8773;43.300;0.394;2022-08-06T10:33:04;3.03;;;2.60;;
17310;SDS011;8773;43.300;0.394;2022-08-06T10:35:57;5.22;;;2.60;;
17310;SDS011;8773;43.300;0.394;2022-08-06T10:38:52;3.20;;;2.40;;
17310;SDS011;8773;43.300;0.394;2022-08-06T10:41:48;4.40;;;2.45;;
17310;SDS011;8773;43.300;0.394;2022-08-06T10:44:49;4.93;;;2.50;;
17310;SDS011;8773;43.300;0.394;2022-08-06T10:47:39;4.10;;;2.50;;
17310;SDS011;8773;43.300;0.394;2022-08-06T10:50:50;3.80;;;2.80;;
17310;SDS011;8773;43.300;0.394;2022-08-06T10:53:43;3.30;;;2.53;;
17310;SDS011;8773;43.300;0.394;2022-08-06T10:56:53;3.90;;;2.55;;
17310;SDS011;8773;43.300;0.394;2022-08-06T10:59:43;6.28;;;4.13;;
17310;SDS011;8773;43.300;0.394;2022-08-06T11:02:44;3.95;;;2.72;;
17310;SDS011;8773;43.300;0.394;2022-08-06T11:05:43;5.22;;;2.58;;
17310;SDS011;8773;43.300;0.394;2022-08-06T11:08:31;3.38;;;2.75;;
17310;SDS011;8773;43.300;0.394;2022-08-06T11:11:51;3.00;;;2.35;;
17310;SDS011;8773;43.300;0.394;2022-08-06T11:15:00;3.42;;;2.75;;
17310;SDS011;8773;43.300;0.394;2022-08-06T11:18:02;4.40;;;2.83;;
17310;SDS011;8773;43.300;0.394;2022-08-06T11:20:50;2.88;;;2.63;;
17310;SDS011;8773;43.300;0.394;2022-08-06T11:23:27;3.28;;;3.03;;
17310;SDS011;8773;43.300;0.394;2022-08-06T11:26:31;4.40;;;2.75;;
17310;SDS011;8773;43.300;0.394;2022-08-06T11:29:06;2.92;;;2.70;;
17310;SDS011;8773;43.300;0.394;2022-08-06T11:31:55;3.13;;;2.83;;
17310;SDS011;8773;43.300;0.394;2022-08-06T11:34:42;4.15;;;2.80;;
17310;SDS011;8773;43.300;0.394;2022-08-06T11:37:44;3.28;;;2.47;;
17310;SDS011;8773;43.300;0.394;2022-08-06T11:40:57;4.25;;;2.95;;
17310;SDS011;8773;43.300;0.394;2022-08-06T11:43:47;2.92;;;2.72;;
17310;SDS011;8773;43.300;0.394;2022-08-06T11:46:31;3.30;;;2.60;;
17310;SDS011;8773;43.300;0.394;2022-08-06T11:49:14;4.30;;;2.97;;
17310;SDS011;8773;43.300;0.394;2022-08-06T11:51:46;3.10;;;2.75;;
17310;SDS011;8773;43.300;0.394;2022-08-06T11:57:34;4.80;;;3.03;;
17310;SDS011;8773;43.300;0.394;2022-08-06T12:00:21;3.67;;;3.25;;
17310;SDS011;8773;43.300;0.394;2022-08-06T12:05:34;4.38;;;3.47;;
17310;SDS011;8773;43.300;0.394;2022-08-06T12:08:12;3.28;;;2.95;;
17310;SDS011;8773;43.300;0.394;2022-08-06T12:11:23;3.20;;;2.90;;
17310;SDS011;8773;43.300;0.394;2022-08-06T12:14:02;3.20;;;2.90;;
17310;SDS011;8773;43.300;0.394;2022-08-06T12:17:08;5.22;;;3.33;;
17310;SDS011;8773;43.300;0.394;2022-08-06T12:19:43;3.70;;;2.80;;
17310;SDS011;8773;43.300;0.394;2022-08-06T12:22:28;3.13;;;2.83;;
17310;SDS011;8773;43.300;0.394;2022-08-06T12:24:58;4.03;;;2.95;;
17310;SDS011;8773;43.300;0.394;2022-08-06T12:27:37;3.70;;;3.35;;
17310;SDS011;8773;43.300;0.394;2022-08-06T12:30:16;4.22;;;3.00;;
17310;SDS011;8773;43.300;0.394;2022-08-06T12:33:06;3.92;;;2.70;;
17310;SDS011;8773;43.300;0.394;2022-08-06T12:35:49;5.90;;;3.00;;
17310;SDS011;8773;43.300;0.394;2022-08-06T12:38:21;5.53;;;3.10;;
17310;SDS011;8773;43.300;0.394;2022-08-06T12:40:52;3.10;;;2.80;;
17310;SDS011;8773;43.300;0.394;2022-08-06T12:43:22;4.82;;;2.95;;
17310;SDS011;8773;43.300;0.394;2022-08-06T12:46:11;3.35;;;2.90;;
17310;SDS011;8773;43.300;0.394;2022-08-06T12:48:46;4.97;;;3.38;;
17310;SDS011;8773;43.300;0.394;2022-08-06T12:51:18;4.97;;;2.97;;
17310;SDS011;8773;43.300;0.394;2022-08-06T12:53:53;3.40;;;3.10;;
17310;SDS011;8773;43.300;0.394;2022-08-06T12:56:24;8.65;;;3.42;;
17310;SDS011;8773;43.300;0.394;2022-08-06T12:58:57;3.10;;;2.80;;
17310;SDS011;8773;43.300;0.394;2022-08-06T13:01:30;3.88;;;3.10;;
17310;SDS011;8773;43.300;0.394;2022-08-06T13:04:19;6.95;;;3.38;;
17310;SDS011;8773;43.300;0.394;2022-08-06T13:06:59;3.08;;;2.78;;
17310;SDS011;8773;43.300;0.394;2022-08-06T13:09:39;7.38;;;3.28;;
17310;SDS011;8773;43.300;0.394;2022-08-06T13:12:28;5.00;;;3.33;;
17310;SDS011;8773;43.300;0.394;2022-08-06T13:15:17;3.67;;;2.95;;
17310;SDS011;8773;43.300;0.394;2022-08-06T13:18:02;3.35;;;3.08;;
17310;SDS011;8773;43.300;0.394;2022-08-06T13:20:52;3.08;;;2.63;;
17310;SDS011;8773;43.300;0.394;2022-08-06T13:23:30;3.28;;;2.90;;
17310;SDS011;8773;43.300;0.394;2022-08-06T13:26:10;4.22;;;3.15;;
17310;SDS011;8773;43.300;0.394;2022-08-06T13:29:10;4.15;;;3.05;;
17310;SDS011;8773;43.300;0.394;2022-08-06T13:32:05;3.20;;;2.90;;
17310;SDS011;8773;43.300;0.394;2022-08-06T13:34:51;3.22;;;2.92;;
17310;SDS011;8773;43.300;0.394;2022-08-06T13:37:40;2.97;;;2.70;;
17310;SDS011;8773;43.300;0.394;2022-08-06T13:40:36;3.83;;;3.30;;
17310;SDS011;8773;43.300;0.394;2022-08-06T13:43:11;4.47;;;3.20;;
17310;SDS011;8773;43.300;0.394;2022-08-06T13:46:06;3.17;;;2.88;;
17310;SDS011;8773;43.300;0.394;2022-08-06T13:48:45;5.82;;;3.40;;
17310;SDS011;8773;43.300;0.394;2022-08-06T13:51:15;3.47;;;2.70;;
17310;SDS011;8773;43.300;0.394;2022-08-06T13:53:52;5.15;;;3.22;;
17310;SDS011;8773;43.300;0.394;2022-08-06T13:56:25;5.68;;;3.25;;
17310;SDS011;8773;43.300;0.394;2022-08-06T13:58:59;4.38;;;3.33;;
17310;SDS011;8773;43.300;0.394;2022-08-06T14:01:30;3.35;;;3.05;;
17310;SDS011;8773;43.300;0.394;2022-08-06T14:04:11;4.47;;;3.15;;
17310;SDS011;8773;43.300;0.394;2022-08-06T14:06:43;4.10;;;3.00;;
17310;SDS011;8773;43.300;0.394;2022-08-06T14:09:12;3.25;;;3.05;;
17310;SDS011;8773;43.300;0.394;2022-08-06T14:11:50;3.50;;;2.60;;
17310;SDS011;8773;43.300;0.394;2022-08-06T14:14:21;5.88;;;3.17;;
17310;SDS011;8773;43.300;0.394;2022-08-06T14:16:53;5.05;;;3.30;;
17310;SDS011;8773;43.300;0.394;2022-08-06T14:19:22;6.45;;;3.40;;
17310;SDS011;8773;43.300;0.394;2022-08-06T14:22:10;2.85;;;2.65;;
17310;SDS011;8773;43.300;0.394;2022-08-06T14:24:38;3.75;;;3.35;;
17310;SDS011;8773;43.300;0.394;2022-08-06T14:27:20;3.08;;;2.80;;
17310;SDS011;8773;43.300;0.394;2022-08-06T14:29:51;3.15;;;2.85;;
17310;SDS011;8773;43.300;0.394;2022-08-06T14:32:39;3.47;;;3.17;;
17310;SDS011;8773;43.300;0.394;2022-08-06T14:35:13;4.00;;;2.97;;
17310;SDS011;8773;43.300;0.394;2022-08-06T14:37:43;3.67;;;3.35;;
17310;SDS011;8773;43.300;0.394;2022-08-06T14:40:17;5.25;;;3.33;;
17310;SDS011;8773;43.300;0.394;2022-08-06T14:43:28;3.40;;;3.20;;
17310;SDS011;8773;43.300;0.394;2022-08-06T14:46:22;4.05;;;3.28;;
17310;SDS011;8773;43.300;0.394;2022-08-06T14:48:52;4.25;;;3.50;;
17310;SDS011;8773;43.300;0.394;2022-08-06T14:51:23;3.45;;;3.15;;
17310;SDS011;8773;43.300;0.394;2022-08-06T14:54:12;3.78;;;3.40;;
17310;SDS011;8773;43.300;0.394;2022-08-06T14:56:40;3.72;;;2.92;;
17310;SDS011;8773;43.300;0.394;2022-08-06T14:59:19;4.25;;;3.30;;
17310;SDS011;8773;43.300;0.394;2022-08-06T15:01:48;3.83;;;3.45;;
17310;SDS011;8773;43.300;0.394;2022-08-06T15:04:17;3.53;;;3.30;;
17310;SDS011;8773;43.300;0.394;2022-08-06T15:06:52;3.50;;;3.20;;
17310;SDS011;8773;43.300;0.394;2022-08-06T15:09:24;6.78;;;3.40;;
17310;SDS011;8773;43.300;0.394;2022-08-06T15:12:13;3.42;;;3.10;;
17310;SDS011;8773;43.300;0.394;2022-08-06T15:15:03;3.90;;;3.55;;
17310;SDS011;8773;43.300;0.394;2022-08-06T15:17:38;3.85;;;3.50;;
17310;SDS011;8773;43.300;0.394;2022-08-06T15:20:26;3.80;;;3.50;;
17310;SDS011;8773;43.300;0.394;2022-08-06T15:22:55;3.50;;;3.20;;
17310;SDS011;8773;43.300;0.394;2022-08-06T15:25:25;4.68;;;3.53;;
17310;SDS011;8773;43.300;0.394;2022-08-06T15:28:13;5.15;;;3.40;;
17310;SDS011;8773;43.300;0.394;2022-08-06T15:30:44;3.08;;;2.80;;
17310;SDS011;8773;43.300;0.394;2022-08-06T15:33:13;3.40;;;3.08;;
17310;SDS011;8773;43.300;0.394;2022-08-06T15:35:46;3.55;;;3.25;;
17310;SDS011;8773;43.300;0.394;2022-08-06T15:38:23;3.83;;;3.53;;
17310;SDS011;8773;43.300;0.394;2022-08-06T15:40:52;3.47;;;3.28;;
17310;SDS011;8773;43.300;0.394;2022-08-06T15:43:20;3.90;;;3.28;;
17310;SDS011;8773;43.300;0.394;2022-08-06T15:45:52;3.10;;;2.92;;
17310;SDS011;8773;43.300;0.394;2022-08-06T15:48:24;3.83;;;3.42;;
17310;SDS011;8773;43.300;0.394;2022-08-06T15:50:54;4.15;;;3.45;;
17310;SDS011;8773;43.300;0.394;2022-08-06T15:53:43;3.60;;;3.30;;
17310;SDS011;8773;43.300;0.394;2022-08-06T15:56:20;3.92;;;3.53;;
17310;SDS011;8773;43.300;0.394;2022-08-06T15:59:05;5.57;;;3.30;;
17310;SDS011;8773;43.300;0.394;2022-08-06T16:01:39;3.78;;;3.47;;
17310;SDS011;8773;43.300;0.394;2022-08-06T16:04:28;3.75;;;3.33;;
17310;SDS011;8773;43.300;0.394;2022-08-06T16:07:03;4.90;;;3.58;;
17310;SDS011;8773;43.300;0.394;2022-08-06T16:09:32;3.55;;;3.38;;
17310;SDS011;8773;43.300;0.394;2022-08-06T16:12:21;3.88;;;3.58;;
17310;SDS011;8773;43.300;0.394;2022-08-06T16:14:50;3.53;;;3.25;;
17310;SDS011;8773;43.300;0.394;2022-08-06T16:17:25;3.65;;;3.28;;
17310;SDS011;8773;43.300;0.394;2022-08-06T16:20:14;4.00;;;3.22;;
17310;SDS011;8773;43.300;0.394;2022-08-06T16:22:48;3.95;;;3.50;;
17310;SDS011;8773;43.300;0.394;2022-08-06T16:25:18;5.53;;;3.83;;
17310;SDS011;8773;43.300;0.394;2022-08-06T16:27:48;3.95;;;3.63;;